Terminal Aerodrome Forecast
Issued by NWS Sterling, VA

Home | Current Version | Previous Version | Text Only | Print | Product List | Glossary On
Versions: 1 2 3 4 5 6 7 8 9 10 11 12 13 14 15 16 17 18 19 20 21 22 23
000
FTUS41 KLWX 061135
TAFMRB
TAF
KMRB 061135Z 0612/0712 35007KT P6SM -SHRA OVC035
     FM061600 35010KT 4SM RA BR OVC025
     FM070000 31008KT 6SM -SHRA BR OVC010
     FM070300 31007KT 6SM BR OVC015=

USA.gov is the U.S. government's official web portal to all federal, state and local government web resources and services.